Time;durP1;ratioP1;P1;durP2;ratioP2;P2;SDS_P1;SDS_P2;PMS_P1;PMS_P2;Temp;Humidity;BMP_temperature;BMP_pressure;BME280_temperature;BME280_humidity;BME280_pressure;Samples;Min_cycle;Max_cycle;Signal;HPM_P1;HPM_P2
2022/05/04 00:00:43;;;;;;;14.03;5.10;;;12.20;57.40;;;;;;5121177;27;20214;-96
2022/05/04 00:03:11;;;;;;;12.70;4.80;;;12.10;57.30;;;;;;5121519;27;20327;-96
2022/05/04 00:05:40;;;;;;;17.23;5.70;;;12.10;57.40;;;;;;5132166;27;20292;-94
2022/05/04 00:08:09;;;;;;;14.53;5.33;;;12.00;57.40;;;;;;5133083;27;20336;-95
2022/05/04 00:10:37;;;;;;;15.43;5.50;;;12.00;57.60;;;;;;5134733;27;20216;-95
2022/05/04 00:13:06;;;;;;;13.07;5.30;;;11.90;57.70;;;;;;5117768;27;20955;-95
2022/05/04 00:15:36;;;;;;;18.53;6.23;;;11.90;57.80;;;;;;5115090;27;20198;-96
2022/05/04 00:18:04;;;;;;;16.37;5.73;;;11.80;57.70;;;;;;5134125;27;20252;-95
2022/05/04 00:20:37;;;;;;;18.13;5.43;;;11.80;57.80;;;;;;5131615;27;20218;-96
2022/05/04 00:23:05;;;;;;;11.23;4.43;;;11.70;58.10;;;;;;5118260;27;20258;-96
2022/05/04 00:25:41;;;;;;;14.80;5.87;;;11.70;58.10;;;;;;5113318;27;20206;-95
2022/05/04 00:28:11;;;;;;;12.43;5.20;;;11.70;58.50;;;;;;5124138;27;20237;-94
2022/05/04 00:30:40;;;;;;;9.77;4.70;;;11.70;58.50;;;;;;5108914;28;20201;-96
2022/05/04 00:33:10;;;;;;;11.13;4.97;;;11.60;58.20;;;;;;5119104;27;20770;-95
2022/05/04 00:35:39;;;;;;;11.33;5.00;;;11.60;58.90;;;;;;5137213;27;20216;-95
2022/05/04 00:38:06;;;;;;;11.60;5.03;;;11.60;58.90;;;;;;5139069;27;20197;-96
2022/05/04 00:40:39;;;;;;;11.40;5.13;;;11.50;58.90;;;;;;5136817;27;20299;-95
2022/05/04 00:43:23;;;;;;;7.43;3.97;;;11.50;59.20;;;;;;5134452;27;20225;-95
2022/05/04 00:45:52;;;;;;;15.60;5.93;;;11.50;59.60;;;;;;5112424;27;20206;-95
2022/05/04 00:48:20;;;;;;;10.57;4.63;;;11.50;59.20;;;;;;5131514;27;20239;-95
2022/05/04 00:50:50;;;;;;;12.03;5.07;;;11.50;59.10;;;;;;5132475;27;20373;-96
2022/05/04 00:53:19;;;;;;;13.97;4.50;;;11.40;59.00;;;;;;5122241;27;20721;-95
2022/05/04 00:56:00;;;;;;;12.80;5.10;;;11.40;59.10;;;;;;5101906;27;20199;-95
2022/05/04 01:01:14;;;;;;;18.73;6.43;;;11.40;59.00;;;;;;5129976;27;20204;-96
2022/05/04 01:03:41;;;;;;;11.90;4.83;;;11.40;59.10;;;;;;5133721;27;20253;-95
2022/05/04 01:06:08;;;;;;;13.00;5.67;;;11.30;58.90;;;;;;5131994;27;20209;-95
2022/05/04 01:08:37;;;;;;;14.50;5.37;;;11.30;58.90;;;;;;5117110;27;20206;-95
2022/05/04 01:11:04;;;;;;;10.83;4.70;;;11.30;59.00;;;;;;5092883;28;20194;-95
2022/05/04 01:13:33;;;;;;;12.47;5.40;;;11.20;59.20;;;;;;5093096;28;20206;-94
2022/05/04 01:16:03;;;;;;;13.33;5.53;;;11.20;59.40;;;;;;5094536;27;20225;-95
2022/05/04 01:18:34;;;;;;;9.63;4.53;;;11.20;59.60;;;;;;5109935;28;20209;-95
2022/05/04 01:23:54;;;;;;;11.70;4.80;;;11.10;59.30;;;;;;5097599;27;20274;-95
2022/05/04 01:26:22;;;;;;;13.77;5.27;;;11.10;59.30;;;;;;5130238;27;20208;-96
2022/05/04 01:28:49;;;;;;;11.97;4.87;;;11.10;59.30;;;;;;5108908;27;20229;-95
2022/05/04 01:31:16;;;;;;;11.63;5.43;;;11.10;59.50;;;;;;5094101;28;20218;-95
2022/05/04 01:33:44;;;;;;;13.00;4.93;;;11.10;59.50;;;;;;5118362;28;20226;-96
2022/05/04 01:36:11;;;;;;;14.97;5.90;;;11.00;59.20;;;;;;5116759;27;20202;-95
2022/05/04 01:38:39;;;;;;;11.90;4.90;;;11.00;59.20;;;;;;5133610;27;20202;-96
2022/05/04 01:42:02;;;;;;;14.40;5.60;;;11.00;59.20;;;;;;5131346;27;20202;-95
2022/05/04 01:44:03;;;;;;;14.93;5.73;;;10.90;59.20;;;;;;5132258;27;20229;-95
2022/05/04 01:46:30;;;;;;;13.03;4.87;;;10.90;59.50;;;;;;5129086;27;20202;-96
2022/05/04 01:48:59;;;;;;;12.87;5.13;;;10.90;59.50;;;;;;5130490;27;20605;-95
2022/05/04 01:51:26;;;;;;;10.90;5.20;;;10.80;59.50;;;;;;5146777;27;20229;-95
2022/05/04 01:53:53;;;;;;;14.60;5.30;;;10.80;59.40;;;;;;5153878;27;20201;-95
2022/05/04 01:56:22;;;;;;;15.17;5.67;;;10.70;59.20;;;;;;5147956;27;20209;-95
2022/05/04 01:58:49;;;;;;;12.20;5.07;;;10.70;59.30;;;;;;5141913;27;20594;-95
2022/05/04 02:01:16;;;;;;;21.47;7.07;;;10.60;59.50;;;;;;5127952;27;20206;-96
2022/05/04 02:03:46;;;;;;;15.53;6.33;;;10.60;59.90;;;;;;5135188;27;20233;-95
2022/05/04 02:06:13;;;;;;;15.40;5.63;;;10.60;60.20;;;;;;5130170;27;20185;-95
2022/05/04 02:08:42;;;;;;;16.17;6.23;;;10.60;60.20;;;;;;5116450;27;20254;-95
2022/05/04 02:11:10;;;;;;;12.97;5.33;;;10.50;60.30;;;;;;5132167;27;20201;-95
2022/05/04 02:13:39;;;;;;;10.27;4.80;;;10.50;60.60;;;;;;5116639;28;20204;-95
2022/05/04 02:16:07;;;;;;;10.30;5.53;;;10.50;60.60;;;;;;5123409;28;20771;-95
2022/05/04 02:18:37;;;;;;;11.10;4.63;;;10.50;60.50;;;;;;5129131;28;20201;-95
2022/05/04 02:21:05;;;;;;;14.33;5.90;;;10.50;60.60;;;;;;5145501;27;20262;-95
2022/05/04 02:23:35;;;;;;;11.77;5.23;;;10.50;60.80;;;;;;5145098;27;20240;-95
2022/05/04 02:26:05;;;;;;;15.53;6.40;;;10.50;61.10;;;;;;5141218;27;20197;-95
2022/05/04 02:28:40;;;;;;;11.33;4.83;;;10.50;61.10;;;;;;5115940;28;20208;-95
2022/05/04 02:31:24;;;;;;;;;;;;;;;;;;;;;
2022/05/04 02:33:53;;;;;;;10.83;4.60;;;10.40;61.10;;;;;;5119878;28;20648;-95
2022/05/04 02:39:08;;;;;;;11.10;5.07;;;10.40;61.10;;;;;;5121032;28;20337;-93
2022/05/04 02:44:23;;;;;;;12.77;5.37;;;10.40;61.20;;;;;;5092215;28;20230;-95
2022/05/04 02:46:53;;;;;;;10.90;5.17;;;10.40;61.10;;;;;;5103030;28;20260;-96
2022/05/04 02:49:21;;;;;;;11.07;5.20;;;10.30;61.00;;;;;;5127118;27;20209;-94
2022/05/04 02:51:49;;;;;;;12.70;5.47;;;10.30;61.00;;;;;;5135731;27;20198;-95
2022/05/04 02:54:16;;;;;;;15.63;5.93;;;10.30;61.00;;;;;;5102333;27;20210;-96
2022/05/04 02:56:44;;;;;;;12.90;5.67;;;10.30;60.90;;;;;;5094826;28;20252;-96
2022/05/04 02:59:11;;;;;;;12.20;5.33;;;10.30;60.80;;;;;;5126987;27;20211;-96
2022/05/04 03:04:35;;;;;;;13.97;5.77;;;10.20;61.10;;;;;;5133928;27;20208;-95
2022/05/04 03:07:04;;;;;;;13.23;6.30;;;10.20;60.90;;;;;;5136139;27;20674;-94
2022/05/04 03:09:32;;;;;;;10.17;5.50;;;10.20;61.10;;;;;;5133775;27;20235;-94
2022/05/04 03:12:01;;;;;;;17.70;6.67;;;10.20;61.10;;;;;;5120062;27;20641;-94
2022/05/04 03:14:39;;;;;;;8.47;4.70;;;10.20;61.10;;;;;;5115495;28;20205;-94
2022/05/04 03:17:09;;;;;;;12.40;5.47;;;10.10;60.80;;;;;;5114888;28;20212;-94
2022/05/04 03:19:37;;;;;;;14.73;6.33;;;10.10;60.80;;;;;;5127166;27;20629;-93
2022/05/04 03:22:05;;;;;;;13.37;5.77;;;10.10;60.70;;;;;;5101370;27;20202;-95
2022/05/04 03:24:35;;;;;;;10.57;4.60;;;10.00;60.60;;;;;;5094902;28;20202;-94
2022/05/04 03:27:03;;;;;;;11.80;5.33;;;10.10;60.50;;;;;;5119198;27;20207;-95
2022/05/04 03:29:30;;;;;;;11.43;4.93;;;10.00;60.70;;;;;;5135322;27;20204;-94
2022/05/04 03:31:57;;;;;;;8.93;4.80;;;10.00;60.50;;;;;;5105741;27;20207;-94
2022/05/04 03:34:26;;;;;;;15.90;6.27;;;10.00;61.40;;;;;;5112760;27;20240;-94
2022/05/04 03:36:54;;;;;;;16.13;6.40;;;9.90;61.70;;;;;;5135697;27;20194;-94
2022/05/04 03:39:21;;;;;;;13.33;5.40;;;9.90;61.90;;;;;;5129638;27;20224;-95
2022/05/04 03:41:50;;;;;;;15.23;5.67;;;9.90;62.10;;;;;;5128305;27;20203;-94
2022/05/04 03:44:23;;;;;;;10.07;5.27;;;9.90;62.30;;;;;;5131097;27;20257;-94
2022/05/04 03:46:56;;;;;;;15.50;5.30;;;9.80;62.50;;;;;;5133626;27;20226;-94
2022/05/04 03:49:27;;;;;;;13.10;5.67;;;9.90;62.70;;;;;;5128962;27;20877;-94
2022/05/04 03:51:56;;;;;;;20.37;6.67;;;9.80;62.40;;;;;;5135782;27;20213;-95
2022/05/04 03:54:25;;;;;;;14.87;6.20;;;9.80;62.40;;;;;;5132102;27;20264;-95
2022/05/04 03:56:53;;;;;;;15.03;6.13;;;9.80;62.40;;;;;;5120498;27;20226;-95
2022/05/04 04:01:55;;;;;;;13.70;6.13;;;9.70;63.30;;;;;;5128599;22;20233;-96
2022/05/04 04:04:22;;;;;;;12.47;6.27;;;9.70;63.30;;;;;;5103262;28;20229;-95
2022/05/04 04:06:50;;;;;;;16.30;6.30;;;9.70;63.40;;;;;;5116098;28;20201;-95
2022/05/04 04:09:24;;;;;;;13.77;6.80;;;9.70;63.70;;;;;;5113562;28;20202;-95
2022/05/04 04:11:53;;;;;;;13.50;6.33;;;9.70;63.80;;;;;;5118990;28;20243;-95
2022/05/04 04:14:21;;;;;;;14.80;6.70;;;9.70;63.40;;;;;;5111924;28;20244;-95
2022/05/04 04:16:49;;;;;;;13.63;6.70;;;9.70;63.40;;;;;;5115372;28;20208;-95
2022/05/04 04:19:18;;;;;;;17.20;6.27;;;9.70;64.30;;;;;;5100196;28;20238;-95
2022/05/04 04:21:52;;;;;;;16.17;5.97;;;9.70;63.80;;;;;;5106794;28;21015;-94
2022/05/04 04:24:21;;;;;;;19.33;7.47;;;9.70;63.80;;;;;;5113413;28;20223;-95
2022/05/04 04:26:49;;;;;;;14.03;6.63;;;9.70;63.90;;;;;;5100383;28;20208;-96
2022/05/04 04:29:19;;;;;;;14.80;6.03;;;9.70;63.60;;;;;;5114443;28;20244;-95
2022/05/04 04:31:47;;;;;;;12.93;5.80;;;9.70;63.40;;;;;;5113812;28;20199;-95
2022/05/04 04:34:16;;;;;;;11.03;5.57;;;9.70;63.40;;;;;;5116195;28;20290;-95
2022/05/04 04:36:44;;;;;;;12.53;6.60;;;9.70;63.60;;;;;;5115596;28;20204;-95
2022/05/04 04:39:11;;;;;;;19.33;6.53;;;9.70;63.70;;;;;;5115235;28;20229;-94
2022/05/04 04:41:41;;;;;;;13.23;6.03;;;9.70;64.00;;;;;;5117181;27;20194;-95
2022/05/04 04:44:09;;;;;;;12.27;5.57;;;9.70;64.10;;;;;;5110668;28;20221;-94
2022/05/04 04:46:37;;;;;;;12.30;6.00;;;9.80;64.10;;;;;;5104510;28;20255;-95
2022/05/04 04:49:08;;;;;;;10.10;5.33;;;9.80;64.30;;;;;;5116107;28;20227;-95
2022/05/04 04:51:44;;;;;;;17.07;7.00;;;9.70;64.30;;;;;;5115187;28;20208;-95
2022/05/04 04:54:12;;;;;;;12.37;5.43;;;9.70;64.70;;;;;;5114741;27;20216;-95
2022/05/04 04:56:58;;;;;;;8.07;5.30;;;9.70;64.40;;;;;;5110782;28;20559;-95
2022/05/04 04:59:26;;;;;;;12.20;5.57;;;9.70;64.70;;;;;;5103135;28;20206;-96
2022/05/04 05:01:53;;;;;;;11.03;5.77;;;9.70;64.30;;;;;;5125158;27;20241;-94
2022/05/04 05:04:24;;;;;;;13.90;6.67;;;9.70;64.40;;;;;;5132160;27;20745;-93
2022/05/04 05:06:52;;;;;;;18.07;7.20;;;9.70;64.30;;;;;;5131223;27;20204;-94
2022/05/04 05:09:29;;;;;;;12.17;5.70;;;9.70;64.60;;;;;;5121575;27;20201;-94
2022/05/04 05:11:59;;;;;;;14.73;6.47;;;9.70;64.70;;;;;;5114623;28;20258;-94
2022/05/04 05:17:17;;;;;;;15.23;6.73;;;9.70;65.00;;;;;;5122618;27;20224;-94
2022/05/04 05:19:45;;;;;;;13.33;6.30;;;9.60;64.90;;;;;;5132533;27;20230;-94
2022/05/04 05:22:14;;;;;;;14.40;6.00;;;9.70;65.20;;;;;;5116139;27;20208;-95
2022/05/04 05:24:43;;;;;;;18.40;7.10;;;9.60;65.40;;;;;;5112221;27;20240;-94
2022/05/04 05:27:13;;;;;;;18.33;6.87;;;9.60;65.50;;;;;;5139883;27;20223;-94
2022/05/04 05:29:42;;;;;;;16.17;6.87;;;9.60;65.60;;;;;;5147090;27;20250;-94
2022/05/04 05:32:20;;;;;;;13.10;6.30;;;9.60;65.60;;;;;;5152887;27;20268;-94
2022/05/04 05:34:55;;;;;;;25.07;8.33;;;9.60;65.70;;;;;;5144509;27;20207;-94
2022/05/04 05:37:25;;;;;;;18.43;7.10;;;9.70;66.20;;;;;;5143151;27;20201;-95
2022/05/04 05:39:52;;;;;;;16.07;7.20;;;9.70;66.10;;;;;;5139553;27;20212;-95
2022/05/04 05:42:23;;;;;;;20.03;8.57;;;9.70;66.50;;;;;;5135423;27;20199;-95
2022/05/04 05:44:50;;;;;;;17.43;7.40;;;9.70;67.10;;;;;;5141259;27;20235;-95
2022/05/04 05:47:21;;;;;;;15.93;7.17;;;9.80;67.20;;;;;;5144596;27;20250;-94
2022/05/04 05:49:50;;;;;;;14.77;6.80;;;9.80;67.30;;;;;;5139148;27;20208;-94
2022/05/04 05:52:53;;;;;;;18.37;7.53;;;9.90;67.70;;;;;;5118257;27;20648;-95
2022/05/04 05:55:21;;;;;;;25.20;10.63;;;9.90;68.40;;;;;;5130642;27;20205;-94
2022/05/04 05:57:49;;;;;;;11.93;6.43;;;10.00;66.40;;;;;;5146091;27;20199;-95
2022/05/04 06:00:18;;;;;;;16.13;7.53;;;10.10;67.00;;;;;;5151618;27;20201;-94
2022/05/04 06:02:46;;;;;;;17.47;8.03;;;10.10;67.30;;;;;;5127640;27;20231;-94
2022/05/04 06:05:16;;;;;;;15.17;7.10;;;10.20;67.10;;;;;;5152850;27;20695;-94
2022/05/04 06:07:44;;;;;;;18.93;8.63;;;10.20;67.30;;;;;;5136477;27;20229;-95
2022/05/04 06:10:15;;;;;;;15.90;7.57;;;10.30;67.20;;;;;;5132345;27;20201;-94
2022/05/04 06:12:44;;;;;;;18.40;8.60;;;10.40;67.40;;;;;;5129026;27;20214;-95
2022/05/04 06:15:14;;;;;;;15.93;7.47;;;10.40;67.40;;;;;;5127259;27;20583;-95
2022/05/04 06:17:56;;;;;;;21.07;8.43;;;10.60;68.00;;;;;;5130486;27;20206;-94
2022/05/04 06:20:24;;;;;;;13.30;7.23;;;10.60;67.90;;;;;;5112723;28;20210;-95
2022/05/04 06:23:06;;;;;;;17.27;8.83;;;10.70;67.80;;;;;;5120955;27;20202;-95
2022/05/04 06:25:35;;;;;;;16.53;8.17;;;10.80;67.80;;;;;;5128482;27;20579;-96
2022/05/04 06:28:02;;;;;;;16.43;8.33;;;10.90;68.20;;;;;;5130905;27;20266;-96
2022/05/04 06:36:21;;;;;;;20.80;9.67;;;11.20;67.90;;;;;;5123135;28;20208;-95
2022/05/04 06:38:48;;;;;;;14.37;7.57;;;11.30;68.20;;;;;;5115123;28;20621;-95
2022/05/04 06:41:16;;;;;;;17.77;8.63;;;11.40;67.80;;;;;;5114022;28;20258;-95
2022/05/04 06:46:41;;;;;;;13.63;7.83;;;11.60;68.50;;;;;;5114378;28;20206;-96
2022/05/04 06:49:11;;;;;;;15.60;7.83;;;11.70;68.40;;;;;;5117564;28;20203;-95
2022/05/04 06:51:44;;;;;;;20.90;8.77;;;11.80;68.20;;;;;;5135325;28;20275;-96
2022/05/04 06:54:14;;;;;;;15.67;7.80;;;11.90;68.30;;;;;;5133407;28;20676;-96
2022/05/04 06:56:41;;;;;;;19.27;8.57;;;12.00;68.10;;;;;;5133728;28;20603;-96
2022/05/04 06:59:10;;;;;;;16.17;7.40;;;12.10;67.80;;;;;;5134302;28;20288;-93
2022/05/04 07:01:40;;;;;;;20.87;8.57;;;12.20;67.90;;;;;;5131521;28;20230;-95
2022/05/04 07:04:12;;;;;;;14.70;6.43;;;12.30;68.00;;;;;;5133333;28;20228;-94
2022/05/04 07:06:39;;;;;;;17.53;7.73;;;12.40;67.80;;;;;;5134218;28;20209;-95
2022/05/04 07:09:10;;;;;;;19.43;7.30;;;12.50;68.50;;;;;;5132701;28;20202;-95
2022/05/04 07:11:41;;;;;;;14.63;6.83;;;12.50;67.70;;;;;;5133565;28;20220;-94
2022/05/04 07:17:00;;;;;;;17.37;7.53;;;12.70;67.40;;;;;;5091447;28;20543;-94
2022/05/04 07:19:31;;;;;;;15.00;6.90;;;12.90;67.10;;;;;;5115937;28;20216;-94
2022/05/04 07:22:06;;;;;;;14.27;6.57;;;13.00;67.30;;;;;;5132536;28;20214;-94
2022/05/04 07:27:32;;;;;;;17.33;8.00;;;13.10;66.90;;;;;;5131815;28;20201;-96
2022/05/04 07:30:38;;;;;;;11.67;6.60;;;13.30;66.90;;;;;;5131879;28;20224;-96
2022/05/04 07:33:09;;;;;;;16.83;7.57;;;13.40;67.10;;;;;;5138570;27;20210;-96
2022/05/04 07:35:40;;;;;;;17.73;8.10;;;13.50;66.30;;;;;;5136990;27;20196;-96
2022/05/04 07:38:07;;;;;;;17.90;9.03;;;13.60;66.20;;;;;;5136895;27;20667;-95
2022/05/04 07:43:40;;;;;;;19.30;8.20;;;13.80;66.00;;;;;;5138442;27;20283;-96
2022/05/04 07:46:12;;;;;;;23.20;9.37;;;13.90;65.70;;;;;;5123444;27;20330;-96
2022/05/04 07:48:41;;;;;;;13.23;7.50;;;14.00;65.60;;;;;;5124196;27;20209;-95
2022/05/04 07:51:11;;;;;;;18.60;8.87;;;14.10;65.30;;;;;;5123268;27;20648;-95
2022/05/04 07:56:44;;;;;;;21.23;8.47;;;14.30;65.10;;;;;;5124086;22;20240;-96
2022/05/04 07:59:11;;;;;;;23.43;9.60;;;14.40;64.90;;;;;;5133465;27;20209;-94
2022/05/04 08:04:25;;;;;;;18.53;7.97;;;14.60;64.20;;;;;;5114102;28;20230;-95
2022/05/04 08:06:54;;;;;;;13.67;7.60;;;14.70;64.00;;;;;;5114365;28;20266;-94
2022/05/04 08:09:22;;;;;;;25.10;10.53;;;14.80;63.80;;;;;;5117504;28;20222;-95
2022/05/04 08:11:49;;;;;;;25.00;8.67;;;14.90;63.70;;;;;;5114404;28;20597;-95
2022/05/04 08:14:19;;;;;;;15.23;8.80;;;15.10;63.50;;;;;;5117733;28;20198;-95
2022/05/04 08:16:49;;;;;;;27.67;10.97;;;15.20;63.10;;;;;;5116734;28;20262;-96
2022/05/04 08:19:16;;;;;;;14.73;8.87;;;15.30;62.80;;;;;;5109062;28;20281;-96
2022/05/04 08:21:47;;;;;;;19.93;8.10;;;15.40;63.00;;;;;;5114039;28;20202;-96
2022/05/04 08:24:35;;;;;;;;;;;;;;;;;;;;;
2022/05/04 08:27:03;;;;;;;17.83;8.57;;;15.60;62.40;;;;;;5114509;28;20208;-96
2022/05/04 08:29:30;;;;;;;20.30;9.53;;;15.70;62.30;;;;;;5114965;28;20229;-96
2022/05/04 08:32:01;;;;;;;20.07;9.00;;;15.80;62.10;;;;;;5112517;28;21020;-96
2022/05/04 08:34:35;;;;;;;17.63;8.27;;;15.90;61.80;;;;;;5115728;28;20198;-96
2022/05/04 08:37:09;;;;;;;16.20;7.27;;;16.10;61.60;;;;;;5116355;28;20211;-95
2022/05/04 08:42:24;;;;;;;19.83;9.07;;;16.30;61.80;;;;;;5369686;22;20246;-96
2022/05/04 08:44:58;;;;;;;16.03;8.73;;;16.40;61.40;;;;;;5097640;28;20273;-95
2022/05/04 08:47:30;;;;;;;17.83;8.40;;;16.50;60.50;;;;;;5096210;28;20232;-96
2022/05/04 08:49:59;;;;;;;16.80;8.03;;;16.60;60.30;;;;;;5104706;28;20196;-96
2022/05/04 08:52:29;;;;;;;12.67;7.97;;;16.70;60.00;;;;;;5090452;28;20601;-96
2022/05/04 08:54:58;;;;;;;12.57;7.30;;;16.80;59.90;;;;;;5078649;28;20201;-96
2022/05/04 08:57:26;;;;;;;15.00;7.40;;;16.90;60.00;;;;;;5078679;28;20241;-96
2022/05/04 08:59:58;;;;;;;14.47;7.67;;;17.00;59.90;;;;;;5073974;28;20666;-96
2022/05/04 09:02:25;;;;;;;16.33;7.63;;;17.10;59.60;;;;;;5079826;28;20235;-93
2022/05/04 09:11:32;;;;;;;12.77;7.33;;;17.40;59.30;;;;;;5135592;28;20227;-96
2022/05/04 09:14:20;;;;;;;11.97;6.67;;;17.50;57.80;;;;;;5124189;28;20214;-96
2022/05/04 09:16:48;;;;;;;20.50;7.63;;;17.70;57.80;;;;;;5121829;28;20206;-96
2022/05/04 09:19:23;;;;;;;11.13;6.53;;;17.70;58.20;;;;;;5125296;28;20209;-95
2022/05/04 09:22:35;;;;;;;16.07;7.90;;;17.80;58.20;;;;;;5116182;28;20210;-95
2022/05/04 09:25:03;;;;;;;15.97;7.17;;;17.90;58.00;;;;;;5105971;28;20230;-96
2022/05/04 09:27:31;;;;;;;12.07;7.13;;;18.00;58.40;;;;;;5109989;28;20624;-96
2022/05/04 09:30:02;;;;;;;39.33;16.20;;;18.10;58.30;;;;;;5184418;22;20194;-96
2022/05/04 09:32:31;;;;;;;16.70;7.63;;;18.30;57.80;;;;;;5122045;28;20231;-96
2022/05/04 09:35:03;;;;;;;17.37;7.60;;;18.30;57.30;;;;;;5124395;28;20220;-96
2022/05/04 09:52:17;;;;;;;10.13;6.07;;;19.00;56.60;;;;;;5142518;22;20234;-94
2022/05/04 09:54:48;;;;;;;10.93;6.20;;;19.10;57.10;;;;;;5134874;27;20201;-95
2022/05/04 09:57:16;;;;;;;12.07;6.43;;;19.20;56.80;;;;;;5121726;28;20220;-96
2022/05/04 09:59:44;;;;;;;14.03;7.27;;;19.40;57.10;;;;;;5130659;27;20197;-96
2022/05/04 10:02:37;;;;;;;15.80;7.20;;;19.60;56.60;;;;;;5120642;27;20313;-96
2022/05/04 10:05:08;;;;;;;13.30;7.00;;;19.70;55.40;;;;;;5115202;28;20762;-94
2022/05/04 10:07:38;;;;;;;16.07;7.97;;;19.90;56.00;;;;;;5113114;28;20202;-95
2022/05/04 10:10:08;;;;;;;17.87;8.43;;;20.00;55.60;;;;;;5139468;27;20203;-96
2022/05/04 10:12:39;;;;;;;18.37;7.73;;;20.10;55.60;;;;;;5121473;28;20202;-96
2022/05/04 10:15:11;;;;;;;13.17;6.23;;;20.20;54.90;;;;;;5122688;27;20205;-96
2022/05/04 10:17:48;;;;;;;15.83;7.90;;;20.30;55.30;;;;;;5118436;28;20606;-95
2022/05/04 10:20:19;;;;;;;15.57;7.37;;;20.40;54.20;;;;;;5107344;28;20314;-95
2022/05/04 10:22:55;;;;;;;14.53;6.77;;;20.50;53.90;;;;;;5115164;28;20227;-96
2022/05/04 10:26:12;;;;;;;9.63;5.97;;;20.70;54.00;;;;;;5099773;28;20240;-96
2022/05/04 10:32:10;;;;;;;14.90;6.73;;;20.90;53.50;;;;;;5119723;28;20251;-96
2022/05/04 10:35:29;;;;;;;17.47;7.33;;;21.00;53.10;;;;;;5122233;28;20210;-96
2022/05/04 10:41:06;;;;;;;11.67;5.77;;;21.30;52.80;;;;;;5254215;22;20252;-96
2022/05/04 10:43:43;;;;;;;17.70;7.43;;;21.40;53.40;;;;;;5140065;28;20205;-96
2022/05/04 10:49:13;;;;;;;11.73;5.33;;;21.50;52.70;;;;;;5139012;27;20205;-96
2022/05/04 10:51:51;;;;;;;13.73;7.10;;;21.60;53.10;;;;;;5142286;27;20179;-96
2022/05/04 10:54:50;;;;;;;11.33;5.50;;;21.70;51.70;;;;;;5140058;28;20204;-96
2022/05/04 10:57:59;;;;;;;13.63;6.40;;;21.80;51.20;;;;;;5144023;28;20288;-96
2022/05/04 11:03:17;;;;;;;11.43;6.13;;;21.90;51.40;;;;;;5135351;22;20229;-96
2022/05/04 11:05:48;;;;;;;8.77;5.67;;;21.90;51.30;;;;;;5137519;27;20624;-95
2022/05/04 11:08:34;;;;;;;9.53;5.67;;;21.90;52.00;;;;;;5117206;28;20207;-96
2022/05/04 11:11:07;;;;;;;13.50;6.77;;;22.00;51.70;;;;;;5104400;28;20214;-95
2022/05/04 11:13:35;;;;;;;9.07;5.67;;;22.10;51.70;;;;;;5143769;27;20201;-95
2022/05/04 11:19:33;;;;;;;12.33;6.07;;;22.20;50.50;;;;;;5132402;27;20200;-96
2022/05/04 11:22:02;;;;;;;14.63;6.40;;;22.20;50.30;;;;;;5121203;28;20232;-96
2022/05/04 11:24:31;;;;;;;9.10;6.30;;;22.10;51.30;;;;;;5103131;28;20206;-96
2022/05/04 11:27:08;;;;;;;9.97;6.40;;;22.10;51.50;;;;;;5102622;28;20217;-96
2022/05/04 11:29:36;;;;;;;11.80;7.20;;;22.20;51.40;;;;;;5101158;28;20305;-96
2022/05/04 11:32:06;;;;;;;9.83;5.53;;;22.10;51.00;;;;;;5122975;28;20255;-96
2022/05/04 11:40:22;;;;;;;9.00;5.60;;;22.20;51.50;;;;;;5087743;27;20278;-96
2022/05/04 11:43:10;;;;;;;13.83;6.90;;;22.10;51.20;;;;;;5142826;27;20207;-96
2022/05/04 11:45:43;;;;;;;17.67;6.93;;;22.10;50.70;;;;;;5131322;27;20220;-93
2022/05/04 11:48:12;;;;;;;9.27;5.30;;;22.10;51.00;;;;;;5120777;28;20223;-93
2022/05/04 11:50:44;;;;;;;8.67;4.67;;;22.00;50.40;;;;;;5123932;27;20190;-95
2022/05/04 11:53:12;;;;;;;9.87;5.60;;;22.00;50.10;;;;;;5116661;28;20190;-96
2022/05/04 11:55:39;;;;;;;10.87;6.10;;;21.90;49.60;;;;;;5121197;27;20203;-95
2022/05/04 11:58:11;;;;;;;11.03;5.83;;;21.80;49.70;;;;;;5120246;27;20209;-94
2022/05/04 12:00:39;;;;;;;6.80;4.40;;;21.80;49.60;;;;;;5115596;28;20300;-94
2022/05/04 12:03:08;;;;;;;8.47;4.90;;;21.70;49.90;;;;;;5120293;28;20213;-96
2022/05/04 12:05:38;;;;;;;11.73;5.77;;;21.70;49.40;;;;;;5107846;28;20588;-95
2022/05/04 12:08:10;;;;;;;7.50;4.97;;;21.60;49.50;;;;;;5097868;28;20248;-93
2022/05/04 12:10:40;;;;;;;9.00;4.80;;;21.50;49.20;;;;;;5096380;28;20533;-94
2022/05/04 12:13:09;;;;;;;8.43;4.40;;;21.50;49.00;;;;;;5098060;28;20232;-94
2022/05/04 12:15:37;;;;;;;7.70;5.07;;;21.40;49.10;;;;;;5097904;27;20206;-95
2022/05/04 12:18:07;;;;;;;8.67;4.57;;;21.40;49.10;;;;;;5118203;27;20206;-93
2022/05/04 12:20:36;;;;;;;10.93;5.67;;;21.30;48.60;;;;;;5111781;27;20248;-92
2022/05/04 12:23:14;;;;;;;6.53;4.17;;;21.20;48.40;;;;;;5112001;28;20202;-95
2022/05/04 12:25:43;;;;;;;6.50;4.00;;;21.20;48.20;;;;;;5105562;28;20255;-94
2022/05/04 12:28:14;;;;;;;10.53;4.70;;;21.10;48.80;;;;;;5095739;28;20199;-95
2022/05/04 12:33:45;;;;;;;7.07;4.43;;;21.00;48.40;;;;;;5097737;28;20191;-95
2022/05/04 12:36:16;;;;;;;8.17;3.93;;;20.90;48.60;;;;;;5098817;28;20207;-95
2022/05/04 12:38:54;;;;;;;9.37;4.60;;;20.90;48.80;;;;;;5101077;28;20252;-96
2022/05/04 12:41:26;;;;;;;7.33;4.23;;;20.80;48.70;;;;;;5102304;28;20191;-96
2022/05/04 12:43:55;;;;;;;11.17;5.30;;;20.80;48.90;;;;;;5116792;28;20214;-95
2022/05/04 12:46:51;;;;;;;10.00;5.07;;;20.80;49.00;;;;;;5130321;27;20226;-96
2022/05/04 12:49:22;;;;;;;8.97;4.87;;;20.70;48.60;;;;;;5128851;28;20255;-95
2022/05/04 12:51:56;;;;;;;8.47;4.43;;;20.70;48.60;;;;;;5125007;28;20230;-96
2022/05/04 12:54:26;;;;;;;9.53;4.87;;;20.70;48.60;;;;;;5131536;28;20297;-96
2022/05/04 12:56:56;;;;;;;4.43;3.27;;;20.60;48.70;;;;;;5127061;28;20206;-96
2022/05/04 12:59:24;;;;;;;9.37;4.17;;;20.60;48.10;;;;;;5106177;27;20290;-94
2022/05/04 13:04:44;;;;;;;9.13;4.73;;;20.50;48.10;;;;;;5101398;28;20213;-96
2022/05/04 13:07:11;;;;;;;7.77;4.80;;;20.50;47.10;;;;;;5101772;28;20226;-94
2022/05/04 13:10:15;;;;;;;9.47;4.50;;;20.40;47.50;;;;;;5123885;28;20217;-96
2022/05/04 13:12:46;;;;;;;10.40;5.00;;;20.40;46.70;;;;;;5121286;28;20208;-95
2022/05/04 13:15:13;;;;;;;7.77;4.07;;;20.30;47.40;;;;;;5116297;28;20259;-95
2022/05/04 13:17:42;;;;;;;9.23;4.90;;;20.30;47.80;;;;;;5098859;28;20610;-96
2022/05/04 13:20:14;;;;;;;9.73;5.43;;;20.20;48.00;;;;;;5110720;28;20202;-96
2022/05/04 13:22:50;;;;;;;8.67;5.07;;;20.20;47.60;;;;;;5098901;28;20217;-96
2022/05/04 13:25:31;;;;;;;13.73;5.47;;;20.10;47.30;;;;;;5108453;28;20201;-96
2022/05/04 13:28:08;;;;;;;6.37;3.87;;;20.10;47.40;;;;;;5095805;28;20198;-95
2022/05/04 13:30:38;;;;;;;12.73;5.07;;;20.00;47.80;;;;;;5095714;28;20232;-96
2022/05/04 13:33:35;;;;;;;8.97;5.10;;;20.00;48.30;;;;;;5116447;28;20255;-96
2022/05/04 13:36:05;;;;;;;7.67;4.63;;;19.90;48.90;;;;;;5111311;28;20203;-94
2022/05/04 13:38:34;;;;;;;9.13;4.33;;;19.90;49.30;;;;;;5107283;28;20193;-95
2022/05/04 13:44:32;;;;;;;8.43;4.20;;;19.90;48.40;;;;;;5148800;22;20228;-96
2022/05/04 13:49:50;;;;;;;11.73;5.10;;;19.90;48.90;;;;;;5115897;27;20227;-95
2022/05/04 13:55:07;;;;;;;7.83;4.23;;;19.80;48.90;;;;;;5137843;27;20196;-96
2022/05/04 13:57:35;;;;;;;5.83;4.67;;;19.90;48.90;;;;;;5115178;28;20962;-95
2022/05/04 14:00:09;;;;;;;11.63;5.20;;;19.80;49.20;;;;;;5116218;28;20308;-95
2022/05/04 14:02:40;;;;;;;10.43;5.23;;;19.90;49.60;;;;;;5116233;28;20597;-95
2022/05/04 14:05:10;;;;;;;9.33;5.47;;;19.80;49.40;;;;;;5112743;28;20197;-95
2022/05/04 14:07:57;;;;;;;13.83;6.67;;;19.80;49.60;;;;;;5122764;28;20233;-96
2022/05/04 14:10:25;;;;;;;10.67;5.97;;;19.80;49.60;;;;;;5114833;28;20219;-96
2022/05/04 14:13:10;;;;;;;12.37;6.87;;;19.80;50.00;;;;;;5132128;28;20225;-96
2022/05/04 14:18:30;;;;;;;10.83;6.77;;;19.80;50.00;;;;;;5119144;22;20264;-95
2022/05/04 14:24:11;;;;;;;13.73;7.70;;;19.70;50.30;;;;;;5116833;22;20244;-95
2022/05/04 14:26:39;;;;;;;14.53;8.63;;;19.80;50.60;;;;;;5117181;28;20233;-96
2022/05/04 14:29:07;;;;;;;12.47;8.33;;;19.80;50.80;;;;;;5116201;28;20201;-95
2022/05/04 14:31:39;;;;;;;11.60;8.37;;;19.90;51.00;;;;;;5115723;28;20281;-95
2022/05/04 14:34:09;;;;;;;14.63;8.63;;;19.90;51.10;;;;;;5121332;28;20210;-95
2022/05/04 14:36:40;;;;;;;10.37;8.00;;;20.00;51.50;;;;;;5116034;28;20293;-95
2022/05/04 14:39:15;;;;;;;15.80;8.40;;;20.00;51.50;;;;;;5122158;28;20262;-94
2022/05/04 14:41:52;;;;;;;13.90;8.60;;;20.10;51.90;;;;;;5120067;28;20209;-95
2022/05/04 14:44:20;;;;;;;16.03;9.07;;;20.20;51.90;;;;;;5105787;28;20729;-95
2022/05/04 14:46:50;;;;;;;18.20;11.07;;;20.20;52.00;;;;;;5105632;28;20549;-95
2022/05/04 14:49:20;;;;;;;11.47;9.23;;;20.30;52.10;;;;;;5105901;28;20203;-96
2022/05/04 14:51:50;;;;;;;15.87;10.70;;;20.40;52.10;;;;;;5116914;28;20202;-94
2022/05/04 14:54:18;;;;;;;17.50;11.07;;;20.50;52.10;;;;;;5122815;28;20224;-94